Time;durP1;ratioP1;P1;durP2;ratioP2;P2;SDS_P1;SDS_P2;PMS_P1;PMS_P2;Temp;Humidity;BMP_temperature;BMP_pressure;BME280_temperature;BME280_humidity;BME280_pressure;Samples;Min_cycle;Max_cycle;Signal;HPM_P1;HPM_P2
2023/01/21 00:00:54;;;;;;;17.50;15.70;;;-2.20;99.90;;;;;;5035096;28;20448;-76
2023/01/21 00:03:20;;;;;;;18.00;16.08;;;-2.20;99.90;;;;;;5027451;28;20427;-74
2023/01/21 00:05:48;;;;;;;17.13;15.32;;;-2.10;99.90;;;;;;5023796;28;20446;-76
2023/01/21 00:08:16;;;;;;;17.90;15.13;;;-2.20;99.90;;;;;;5029116;28;20888;-74
2023/01/21 00:10:43;;;;;;;18.48;15.23;;;-2.20;99.90;;;;;;5038037;28;20779;-75
2023/01/21 00:13:09;;;;;;;16.50;14.70;;;-2.20;99.90;;;;;;5028167;28;20427;-74
2023/01/21 00:15:36;;;;;;;17.10;14.35;;;-2.20;99.90;;;;;;5032427;28;20437;-76
2023/01/21 00:18:03;;;;;;;19.70;16.17;;;-2.20;99.90;;;;;;5025798;28;20438;-75
2023/01/21 00:20:30;;;;;;;16.95;15.15;;;-2.20;99.90;;;;;;5029825;28;20430;-75
2023/01/21 00:22:56;;;;;;;16.77;14.98;;;-2.20;99.90;;;;;;5027441;28;20435;-75
2023/01/21 00:25:24;;;;;;;17.58;15.35;;;-2.20;99.90;;;;;;5032730;28;20437;-75
2023/01/21 00:27:51;;;;;;;16.45;14.75;;;-2.20;99.90;;;;;;5027313;28;20411;-74
2023/01/21 00:30:18;;;;;;;16.90;14.35;;;-2.10;99.90;;;;;;5033187;28;20434;-75
2023/01/21 00:32:45;;;;;;;17.90;15.27;;;-2.10;99.90;;;;;;5031731;28;20442;-75
2023/01/21 00:35:12;;;;;;;16.00;13.70;;;-2.10;99.90;;;;;;5025598;28;20450;-76
2023/01/21 00:37:38;;;;;;;15.20;13.25;;;-2.20;99.90;;;;;;5034930;28;20422;-76
2023/01/21 00:40:06;;;;;;;15.20;13.23;;;-2.20;99.90;;;;;;5033635;28;20521;-75
2023/01/21 00:42:34;;;;;;;16.63;14.82;;;-2.20;99.90;;;;;;5039311;28;20425;-75
2023/01/21 00:45:01;;;;;;;16.67;14.30;;;-2.20;99.90;;;;;;5047581;28;20451;-75
2023/01/21 00:47:28;;;;;;;15.05;13.18;;;-2.00;99.90;;;;;;5028603;28;20465;-75
2023/01/21 00:49:55;;;;;;;15.82;14.00;;;-2.00;99.90;;;;;;5030990;28;21182;-76
2023/01/21 00:52:21;;;;;;;14.70;12.95;;;-2.00;99.90;;;;;;5027131;28;20442;-76
2023/01/21 00:54:48;;;;;;;14.00;12.50;;;-2.00;99.90;;;;;;5032963;28;20441;-75
2023/01/21 00:57:15;;;;;;;14.80;13.30;;;-2.00;99.90;;;;;;5041339;28;20425;-75
2023/01/21 00:59:43;;;;;;;14.98;13.32;;;-2.10;99.90;;;;;;5049702;28;20437;-75
2023/01/21 01:02:10;;;;;;;14.18;12.73;;;-2.00;99.90;;;;;;5048717;28;20585;-76
2023/01/21 01:04:36;;;;;;;14.20;12.70;;;-2.10;99.90;;;;;;5043997;28;20463;-76
2023/01/21 01:07:03;;;;;;;14.40;12.90;;;-2.10;99.90;;;;;;5029590;28;20446;-76
2023/01/21 01:09:30;;;;;;;13.60;12.20;;;-2.20;99.90;;;;;;5019361;28;20434;-75
2023/01/21 01:11:57;;;;;;;13.52;12.13;;;-2.20;99.90;;;;;;5031477;28;20431;-75
2023/01/21 01:14:23;;;;;;;14.07;12.57;;;-2.30;99.90;;;;;;5026518;28;20454;-75
2023/01/21 01:16:52;;;;;;;15.05;13.45;;;-2.30;99.90;;;;;;5028196;28;20542;-74
2023/01/21 01:19:18;;;;;;;15.60;13.05;;;-2.30;99.90;;;;;;5049018;28;20424;-75
2023/01/21 01:21:45;;;;;;;14.18;12.68;;;-2.30;99.90;;;;;;5027687;28;20448;-76
2023/01/21 01:24:12;;;;;;;16.10;12.48;;;-2.30;99.90;;;;;;5024590;28;20485;-75
2023/01/21 01:26:39;;;;;;;13.75;12.35;;;-2.40;99.90;;;;;;5045902;28;20445;-76
2023/01/21 01:29:07;;;;;;;14.05;12.55;;;-2.30;99.90;;;;;;5047798;28;20435;-75
2023/01/21 01:31:34;;;;;;;14.20;12.70;;;-2.40;99.90;;;;;;5042459;28;20464;-74
2023/01/21 01:34:02;;;;;;;14.20;12.70;;;-2.50;99.90;;;;;;5049766;28;20431;-75
2023/01/21 01:36:28;;;;;;;14.50;13.00;;;-2.50;99.90;;;;;;5048079;28;20427;-75
2023/01/21 01:38:55;;;;;;;14.95;12.90;;;-2.50;99.90;;;;;;5048597;28;20411;-74
2023/01/21 01:41:26;;;;;;;14.73;13.10;;;-2.50;99.90;;;;;;5045797;28;20456;-74
2023/01/21 01:43:58;;;;;;;13.93;12.50;;;-2.50;99.90;;;;;;5047337;28;20450;-75
2023/01/21 01:46:27;;;;;;;13.30;11.90;;;-2.50;99.90;;;;;;5046296;28;20430;-74
2023/01/21 01:49:01;;;;;;;13.60;12.20;;;-2.50;99.90;;;;;;5043306;28;20419;-75
2023/01/21 01:51:34;;;;;;;14.03;12.60;;;-2.50;99.90;;;;;;5033332;28;20511;-75
2023/01/21 01:54:01;;;;;;;14.18;12.68;;;-2.50;99.90;;;;;;5019745;28;20450;-75
2023/01/21 01:56:30;;;;;;;13.65;12.15;;;-2.50;99.90;;;;;;5032366;28;20423;-75
2023/01/21 01:58:57;;;;;;;13.05;11.65;;;-2.50;99.90;;;;;;5030149;28;20415;-74
2023/01/21 02:01:24;;;;;;;12.32;10.77;;;-2.40;99.90;;;;;;5036713;28;20436;-74
2023/01/21 02:03:58;;;;;;;12.85;11.55;;;-2.40;99.90;;;;;;5031715;28;20419;-74
2023/01/21 02:06:26;;;;;;;15.47;13.30;;;-2.30;99.90;;;;;;5030535;28;20514;-74
2023/01/21 02:08:55;;;;;;;14.00;12.25;;;-2.30;99.90;;;;;;5037741;28;20446;-75
2023/01/21 02:11:22;;;;;;;13.90;11.82;;;-2.30;99.90;;;;;;5035926;28;20541;-74
2023/01/21 02:13:53;;;;;;;13.40;12.00;;;-2.30;99.90;;;;;;5034330;28;20528;-73
2023/01/21 02:16:41;;;;;;;12.67;11.37;;;-2.30;99.90;;;;;;5031232;28;20885;-74
2023/01/21 02:19:50;;;;;;;14.23;11.90;;;-2.30;99.90;;;;;;5031865;28;20446;-75
2023/01/21 02:22:27;;;;;;;13.13;11.73;;;-2.20;99.90;;;;;;4998731;28;20414;-74
2023/01/21 02:25:29;;;;;;;12.20;10.88;;;-2.20;99.90;;;;;;5027663;28;20450;-75
2023/01/21 02:28:24;;;;;;;13.38;11.88;;;-2.20;99.90;;;;;;5028292;28;20865;-74
2023/01/21 02:31:15;;;;;;;13.27;11.60;;;-2.30;99.90;;;;;;5033687;28;20889;-75
2023/01/21 02:34:03;;;;;;;13.55;11.30;;;-2.40;99.90;;;;;;5024535;28;20434;-75
2023/01/21 02:36:42;;;;;;;12.55;11.23;;;-2.40;99.90;;;;;;5027150;28;20443;-76
2023/01/21 02:39:15;;;;;;;14.02;11.40;;;-2.40;99.90;;;;;;5031008;28;20890;-74
2023/01/21 02:41:57;;;;;;;12.82;10.90;;;-2.40;99.90;;;;;;5033584;28;20513;-74
2023/01/21 02:44:32;;;;;;;11.85;10.57;;;-2.40;99.90;;;;;;5031302;28;20429;-75
2023/01/21 02:47:05;;;;;;;12.98;10.73;;;-2.40;99.90;;;;;;5035250;28;20440;-74
2023/01/21 02:49:39;;;;;;;12.35;11.05;;;-2.40;99.90;;;;;;5036010;28;20445;-75
2023/01/21 02:52:06;;;;;;;13.23;11.93;;;-2.30;99.90;;;;;;5033647;28;20516;-75
2023/01/21 02:54:50;;;;;;;12.73;11.30;;;-2.30;99.90;;;;;;5031711;28;20434;-75
2023/01/21 02:57:24;;;;;;;11.85;10.63;;;-2.30;99.90;;;;;;5029972;28;20439;-74
2023/01/21 02:59:54;;;;;;;12.48;11.18;;;-2.30;99.90;;;;;;5027904;28;20857;-75
2023/01/21 03:02:33;;;;;;;11.90;10.65;;;-2.20;99.90;;;;;;5028245;28;20456;-74
2023/01/21 03:05:11;;;;;;;11.33;9.63;;;-2.20;99.90;;;;;;5028195;28;20932;-74
2023/01/21 03:07:45;;;;;;;11.15;10.07;;;-2.20;99.90;;;;;;5032710;28;20419;-75
2023/01/21 03:10:22;;;;;;;11.52;10.32;;;-2.30;99.90;;;;;;5030772;28;20855;-74
2023/01/21 03:12:55;;;;;;;10.77;9.68;;;-2.30;99.90;;;;;;5027662;28;20445;-75
2023/01/21 03:18:19;;;;;;;10.02;8.93;;;-2.20;99.90;;;;;;5029053;28;20410;-75
2023/01/21 03:20:53;;;;;;;11.43;9.98;;;-2.20;99.90;;;;;;5035855;28;20435;-75
2023/01/21 03:23:22;;;;;;;10.60;9.50;;;-2.30;99.90;;;;;;5047034;28;20426;-75
2023/01/21 03:25:50;;;;;;;11.07;9.88;;;-2.40;99.90;;;;;;5042256;28;20438;-75
2023/01/21 03:28:21;;;;;;;11.45;10.25;;;-2.40;99.90;;;;;;5045658;28;20429;-75
2023/01/21 03:30:54;;;;;;;10.97;9.77;;;-2.40;99.90;;;;;;5040026;28;20491;-75
2023/01/21 03:33:22;;;;;;;10.90;9.80;;;-2.40;99.90;;;;;;5028037;28;20454;-75
2023/01/21 03:35:53;;;;;;;11.25;9.48;;;-2.40;99.90;;;;;;5027324;28;20418;-75
2023/01/21 03:38:25;;;;;;;10.70;9.60;;;-2.30;99.90;;;;;;5036612;28;20427;-75
2023/01/21 03:40:56;;;;;;;11.05;9.60;;;-2.20;99.90;;;;;;5031977;28;20427;-75
2023/01/21 03:43:23;;;;;;;10.70;9.60;;;-2.30;99.90;;;;;;5027286;28;20537;-75
2023/01/21 03:45:57;;;;;;;10.88;9.40;;;-2.40;99.90;;;;;;5026948;28;20457;-75
2023/01/21 03:48:30;;;;;;;10.67;9.57;;;-2.50;99.90;;;;;;5029771;28;20510;-75
2023/01/21 03:51:07;;;;;;;11.05;9.52;;;-2.60;99.90;;;;;;5026447;28;20494;-75
2023/01/21 03:53:34;;;;;;;11.90;10.70;;;-2.60;99.90;;;;;;5019146;28;20436;-75
2023/01/21 03:56:01;;;;;;;10.90;9.55;;;-2.60;99.90;;;;;;5030259;28;20435;-75
2023/01/21 03:58:28;;;;;;;11.43;10.23;;;-2.60;99.90;;;;;;5034939;28;20450;-75
2023/01/21 04:00:55;;;;;;;13.13;10.05;;;-2.70;99.90;;;;;;5046144;28;20432;-75
2023/01/21 04:03:22;;;;;;;10.80;9.70;;;-2.70;99.90;;;;;;5042018;28;20427;-75
2023/01/21 04:05:48;;;;;;;11.63;10.05;;;-2.70;99.90;;;;;;5044407;28;20469;-75
2023/01/21 04:08:16;;;;;;;10.93;9.82;;;-2.80;99.90;;;;;;5041841;28;20427;-75
2023/01/21 04:10:43;;;;;;;10.52;9.43;;;-2.90;99.90;;;;;;5040723;28;20802;-75
2023/01/21 04:13:10;;;;;;;11.43;10.23;;;-2.90;99.90;;;;;;5032360;28;20431;-75
2023/01/21 04:15:37;;;;;;;10.70;9.70;;;-2.90;99.90;;;;;;5033454;28;20881;-75
2023/01/21 04:18:03;;;;;;;11.15;9.35;;;-2.90;99.90;;;;;;5036456;28;20422;-75
2023/01/21 04:20:30;;;;;;;11.30;9.35;;;-2.90;99.90;;;;;;5031660;28;20457;-75
2023/01/21 04:22:57;;;;;;;10.65;9.55;;;-2.90;99.90;;;;;;5033916;28;20432;-75
2023/01/21 04:25:25;;;;;;;11.23;9.10;;;-3.00;99.90;;;;;;5031155;28;20531;-75
2023/01/21 04:27:51;;;;;;;10.13;8.88;;;-3.00;99.90;;;;;;5023158;28;20455;-75
2023/01/21 04:30:18;;;;;;;11.10;9.27;;;-3.00;99.90;;;;;;5028165;28;20477;-75
2023/01/21 04:32:45;;;;;;;11.23;10.13;;;-3.00;99.90;;;;;;5028623;28;20535;-75
2023/01/21 04:35:12;;;;;;;10.50;9.50;;;-3.00;99.90;;;;;;5027302;28;20431;-75
2023/01/21 04:37:38;;;;;;;10.93;9.82;;;-3.00;99.90;;;;;;5028319;28;20418;-74
2023/01/21 04:40:06;;;;;;;10.95;9.85;;;-3.00;99.90;;;;;;5043714;28;20441;-76
2023/01/21 04:42:34;;;;;;;11.60;9.50;;;-3.00;99.90;;;;;;5048584;28;20426;-75
2023/01/21 04:45:01;;;;;;;10.85;9.75;;;-3.00;99.90;;;;;;5042456;28;20943;-74
2023/01/21 04:47:28;;;;;;;9.90;8.90;;;-3.10;99.90;;;;;;5043605;28;20526;-75
2023/01/21 04:49:56;;;;;;;11.10;9.93;;;-3.10;99.90;;;;;;5048629;28;20533;-75
2023/01/21 04:52:23;;;;;;;10.25;9.00;;;-3.00;99.90;;;;;;5046144;28;20458;-74
2023/01/21 04:54:50;;;;;;;11.52;10.32;;;-3.00;99.90;;;;;;5052154;28;20543;-74
2023/01/21 04:57:17;;;;;;;10.10;9.10;;;-3.10;99.90;;;;;;5043970;28;20411;-75
2023/01/21 04:59:45;;;;;;;11.10;9.98;;;-3.10;99.90;;;;;;5045677;28;20428;-74
2023/01/21 05:02:11;;;;;;;9.50;8.60;;;-3.10;99.90;;;;;;5040858;28;20434;-75
2023/01/21 05:04:38;;;;;;;10.25;8.85;;;-3.20;99.90;;;;;;5043826;28;20425;-75
2023/01/21 05:07:05;;;;;;;11.25;10.05;;;-3.10;99.90;;;;;;5031966;28;20425;-75
2023/01/21 05:09:32;;;;;;;11.43;10.23;;;-3.20;99.90;;;;;;5043163;28;20448;-76
2023/01/21 05:11:58;;;;;;;10.10;9.10;;;-3.20;99.90;;;;;;5030137;28;20757;-75
2023/01/21 05:14:25;;;;;;;11.52;10.32;;;-3.20;99.90;;;;;;5034268;28;20437;-75
2023/01/21 05:16:53;;;;;;;11.98;10.00;;;-3.20;99.90;;;;;;5030751;28;20442;-75
2023/01/21 05:19:20;;;;;;;10.93;9.82;;;-3.30;99.90;;;;;;5032082;28;20911;-75
2023/01/21 05:21:46;;;;;;;11.70;9.57;;;-3.20;99.90;;;;;;5032254;28;20427;-75
2023/01/21 05:24:13;;;;;;;11.40;9.98;;;-3.30;99.90;;;;;;5019410;28;22355;-74
2023/01/21 05:26:40;;;;;;;12.45;10.60;;;-3.30;99.90;;;;;;5032025;28;20431;-75
2023/01/21 05:29:07;;;;;;;11.55;10.20;;;-3.30;99.90;;;;;;5029605;28;20442;-75
2023/01/21 05:31:33;;;;;;;11.27;10.15;;;-3.30;99.90;;;;;;5033860;28;20433;-75
2023/01/21 05:34:01;;;;;;;12.20;10.68;;;-3.20;99.90;;;;;;5037490;28;20440;-74
2023/01/21 05:36:28;;;;;;;14.68;10.60;;;-3.10;99.90;;;;;;5033137;28;20430;-74
2023/01/21 05:38:55;;;;;;;12.60;10.82;;;-3.10;99.90;;;;;;5033606;28;20436;-75
2023/01/21 05:41:22;;;;;;;12.15;10.90;;;-3.10;99.90;;;;;;5031297;28;21019;-74
2023/01/21 05:43:48;;;;;;;12.80;10.20;;;-3.00;99.90;;;;;;5028557;28;20518;-75
2023/01/21 05:46:16;;;;;;;11.90;10.70;;;-3.10;99.90;;;;;;5032886;28;20466;-76
2023/01/21 05:48:43;;;;;;;12.88;11.25;;;-3.10;99.90;;;;;;5030790;28;20419;-74
2023/01/21 05:51:11;;;;;;;11.38;10.27;;;-3.00;99.90;;;;;;5033102;28;20438;-75
2023/01/21 05:53:38;;;;;;;12.10;10.80;;;-3.10;99.90;;;;;;5031832;28;20435;-75
2023/01/21 05:56:05;;;;;;;12.77;11.00;;;-3.10;99.90;;;;;;5031002;28;20434;-75
2023/01/21 05:58:32;;;;;;;12.48;11.18;;;-3.00;99.90;;;;;;5033778;28;21708;-74
2023/01/21 06:00:59;;;;;;;12.40;11.00;;;-2.90;99.90;;;;;;5032594;28;20444;-75
2023/01/21 06:03:26;;;;;;;12.50;11.20;;;-2.90;99.90;;;;;;5030350;28;20518;-75
2023/01/21 06:05:53;;;;;;;13.98;11.32;;;-2.90;99.90;;;;;;5032301;28;20542;-75
2023/01/21 06:08:22;;;;;;;12.30;10.98;;;-3.00;99.90;;;;;;5028018;28;20534;-74
2023/01/21 06:10:48;;;;;;;14.20;11.50;;;-3.00;99.90;;;;;;5024687;28;20491;-76
2023/01/21 06:13:16;;;;;;;15.68;13.30;;;-3.00;99.90;;;;;;5021779;28;20447;-75
2023/01/21 06:15:43;;;;;;;13.38;11.68;;;-3.00;99.90;;;;;;5028411;28;20432;-75
2023/01/21 06:18:09;;;;;;;12.73;11.43;;;-3.10;99.90;;;;;;5028836;28;20427;-74
2023/01/21 06:20:36;;;;;;;13.75;11.45;;;-3.10;99.90;;;;;;5030424;28;20456;-75
2023/01/21 06:23:03;;;;;;;13.52;11.40;;;-3.10;99.90;;;;;;5030082;28;21033;-74
2023/01/21 06:25:32;;;;;;;13.27;11.87;;;-3.10;99.90;;;;;;5031662;28;20430;-75
2023/01/21 06:28:00;;;;;;;14.20;12.15;;;-3.20;99.90;;;;;;5016055;28;20438;-75
2023/01/21 06:30:27;;;;;;;13.73;12.27;;;-3.20;99.90;;;;;;5023586;28;20498;-75
2023/01/21 06:32:54;;;;;;;14.70;13.02;;;-3.20;99.90;;;;;;5038200;28;20867;-75
2023/01/21 06:35:21;;;;;;;14.45;12.95;;;-3.20;99.90;;;;;;5029378;28;20427;-74
2023/01/21 06:37:47;;;;;;;15.60;13.77;;;-3.10;99.90;;;;;;5033105;28;20889;-75
2023/01/21 06:40:15;;;;;;;14.70;13.10;;;-3.00;99.90;;;;;;5033141;28;20789;-75
2023/01/21 06:42:45;;;;;;;14.40;12.90;;;-3.00;99.90;;;;;;5047845;28;20430;-75
2023/01/21 06:45:12;;;;;;;14.23;12.73;;;-3.00;99.90;;;;;;5051607;28;20487;-74
2023/01/21 06:47:41;;;;;;;15.52;13.93;;;-3.10;99.90;;;;;;5055575;28;20426;-74
2023/01/21 06:50:09;;;;;;;14.77;13.07;;;-3.10;99.90;;;;;;5047271;28;20507;-75
2023/01/21 06:52:35;;;;;;;15.60;13.75;;;-3.20;99.90;;;;;;5047626;28;20446;-75
2023/01/21 06:55:02;;;;;;;14.40;12.90;;;-3.20;99.90;;;;;;5033887;28;20486;-73
2023/01/21 06:57:30;;;;;;;13.65;12.35;;;-3.30;99.90;;;;;;5026568;28;20429;-76
2023/01/21 06:59:58;;;;;;;14.70;13.20;;;-3.30;99.90;;;;;;5037571;28;20415;-75
2023/01/21 07:02:24;;;;;;;15.18;13.30;;;-3.20;99.90;;;;;;5039415;28;20463;-75
2023/01/21 07:04:51;;;;;;;15.18;13.57;;;-3.20;99.90;;;;;;5044827;28;20429;-75
2023/01/21 07:07:18;;;;;;;15.30;13.70;;;-3.20;99.90;;;;;;5038443;28;20419;-75
2023/01/21 07:09:45;;;;;;;14.82;13.13;;;-3.20;99.90;;;;;;5028848;28;20454;-75
2023/01/21 07:12:12;;;;;;;15.37;13.77;;;-3.20;99.90;;;;;;5017962;28;20446;-77
2023/01/21 07:14:39;;;;;;;15.20;13.60;;;-3.20;99.90;;;;;;5029065;28;20429;-75
2023/01/21 07:17:07;;;;;;;15.45;13.55;;;-3.20;99.90;;;;;;5025271;28;20434;-75
2023/01/21 07:19:33;;;;;;;14.88;13.25;;;-3.20;99.90;;;;;;5023067;28;20438;-76
2023/01/21 07:22:00;;;;;;;16.20;14.50;;;-3.00;99.90;;;;;;5028177;28;21178;-75
2023/01/21 07:24:27;;;;;;;14.85;13.35;;;-3.00;99.90;;;;;;5026182;28;20447;-74
2023/01/21 07:26:55;;;;;;;16.60;13.95;;;-3.00;99.90;;;;;;5027489;28;20422;-74
2023/01/21 07:29:23;;;;;;;18.63;14.68;;;-3.00;99.90;;;;;;5027635;28;20438;-75
2023/01/21 07:31:49;;;;;;;16.27;14.32;;;-3.00;99.90;;;;;;5034843;28;20503;-74
2023/01/21 07:34:18;;;;;;;15.82;13.93;;;-3.00;99.90;;;;;;5040199;28;20497;-74
2023/01/21 07:36:44;;;;;;;16.40;14.60;;;-2.90;99.90;;;;;;5040886;28;20445;-74
2023/01/21 07:39:11;;;;;;;16.20;14.45;;;-2.90;99.90;;;;;;5036458;28;20823;-74
2023/01/21 07:41:38;;;;;;;16.73;15.02;;;-2.90;99.90;;;;;;5039607;28;20433;-75
2023/01/21 07:44:05;;;;;;;15.88;14.18;;;-2.90;99.90;;;;;;5032413;28;20877;-74
2023/01/21 07:46:33;;;;;;;16.25;14.48;;;-3.00;99.90;;;;;;5029062;28;21036;-74
2023/01/21 07:49:00;;;;;;;15.30;13.45;;;-2.90;99.90;;;;;;5035647;28;20419;-74
2023/01/21 07:51:28;;;;;;;17.48;15.68;;;-2.90;99.90;;;;;;5029424;28;20419;-75
2023/01/21 07:53:55;;;;;;;15.57;13.98;;;-2.80;99.90;;;;;;5028468;28;20415;-75
2023/01/21 07:56:23;;;;;;;17.70;15.02;;;-2.80;99.90;;;;;;5026592;28;20957;-75
2023/01/21 07:58:50;;;;;;;17.02;14.75;;;-2.80;99.90;;;;;;5028115;28;20554;-75
2023/01/21 08:01:17;;;;;;;15.67;13.87;;;-2.80;99.90;;;;;;5032228;28;20507;-75
2023/01/21 08:03:44;;;;;;;15.73;13.65;;;-2.80;99.90;;;;;;5026491;28;20477;-75
2023/01/21 08:06:10;;;;;;;15.82;14.13;;;-2.70;99.90;;;;;;5035030;28;20967;-74
2023/01/21 08:08:38;;;;;;;16.88;15.18;;;-2.60;99.90;;;;;;5033654;28;20450;-74
2023/01/21 08:11:05;;;;;;;16.58;14.75;;;-2.50;99.90;;;;;;5029332;28;20435;-76
2023/01/21 08:13:32;;;;;;;17.05;15.35;;;-2.50;99.90;;;;;;5030182;28;20884;-76
2023/01/21 08:15:59;;;;;;;17.67;15.10;;;-2.40;99.90;;;;;;5030184;28;20449;-76
2023/01/21 08:18:25;;;;;;;17.50;15.60;;;-2.20;99.90;;;;;;5024880;28;21157;-76
2023/01/21 08:20:55;;;;;;;17.27;15.57;;;-2.10;99.90;;;;;;5026312;28;20430;-76
2023/01/21 08:23:22;;;;;;;17.37;15.57;;;-2.00;99.90;;;;;;5025568;28;20553;-76
2023/01/21 08:25:50;;;;;;;19.13;16.30;;;-1.80;99.90;;;;;;5029194;28;20430;-76
2023/01/21 08:28:17;;;;;;;17.95;16.05;;;-1.60;99.90;;;;;;5032820;28;20425;-76
2023/01/21 08:30:44;;;;;;;17.20;15.50;;;-1.40;99.90;;;;;;5043127;28;20438;-77
2023/01/21 08:33:11;;;;;;;18.45;16.55;;;-1.20;99.90;;;;;;5042062;28;20518;-76
2023/01/21 08:35:37;;;;;;;18.53;16.63;;;-1.00;99.90;;;;;;5048784;28;20470;-78
2023/01/21 08:38:04;;;;;;;18.25;16.35;;;-0.90;99.90;;;;;;5036677;28;20429;-76
2023/01/21 08:40:31;;;;;;;17.35;15.48;;;-0.70;99.90;;;;;;5033197;28;20847;-77
2023/01/21 08:43:00;;;;;;;18.65;16.65;;;-0.50;99.90;;;;;;5028627;28;20430;-78
2023/01/21 08:45:28;;;;;;;17.50;15.77;;;-0.30;99.90;;;;;;5030211;28;20443;-66
2023/01/21 08:47:55;;;;;;;17.70;15.98;;;-0.10;99.90;;;;;;5035720;28;20925;-74
2023/01/21 08:50:23;;;;;;;17.58;15.80;;;0.10;99.90;;;;;;5035983;28;20439;-74
2023/01/21 08:52:51;;;;;;;17.40;15.52;;;0.30;99.90;;;;;;5033328;28;20441;-72
2023/01/21 08:55:18;;;;;;;18.95;16.85;;;0.40;99.90;;;;;;5031863;28;20645;-73
2023/01/21 08:57:45;;;;;;;17.08;15.38;;;0.50;99.90;;;;;;5035232;28;20436;-73
2023/01/21 09:00:15;;;;;;;18.67;16.67;;;0.60;99.90;;;;;;5032789;28;20421;-73
2023/01/21 09:02:41;;;;;;;17.40;15.50;;;0.70;99.90;;;;;;5035159;28;20425;-73
2023/01/21 09:05:08;;;;;;;18.70;17.00;;;0.70;99.90;;;;;;5028297;28;20441;-73
2023/01/21 09:07:35;;;;;;;19.00;17.15;;;0.80;99.90;;;;;;5027346;28;20758;-74
2023/01/21 09:10:02;;;;;;;18.17;16.27;;;0.80;99.90;;;;;;5031961;28;20491;-75
2023/01/21 09:12:29;;;;;;;18.23;16.43;;;0.90;99.90;;;;;;5033195;28;20449;-74
2023/01/21 09:14:55;;;;;;;17.60;15.80;;;0.90;99.90;;;;;;5031615;28;20435;-74
2023/01/21 09:17:24;;;;;;;17.70;15.65;;;1.00;99.90;;;;;;5036908;28;20434;-74
2023/01/21 09:19:50;;;;;;;17.38;15.57;;;1.00;99.90;;;;;;5040907;28;20422;-75
2023/01/21 09:22:18;;;;;;;17.15;15.45;;;1.10;99.90;;;;;;5034249;28;20833;-75
2023/01/21 09:24:44;;;;;;;17.35;15.65;;;1.20;99.90;;;;;;5041905;28;20437;-74
2023/01/21 09:27:11;;;;;;;16.85;15.15;;;1.40;99.60;;;;;;5029380;28;20501;-75
2023/01/21 09:29:38;;;;;;;17.27;15.53;;;1.30;99.00;;;;;;5030036;28;20493;-74
2023/01/21 09:32:05;;;;;;;18.20;16.40;;;1.20;99.00;;;;;;5031648;28;20435;-75
2023/01/21 09:34:33;;;;;;;17.83;16.10;;;1.20;99.50;;;;;;5032301;28;20434;-75
2023/01/21 09:37:00;;;;;;;18.10;16.30;;;1.20;99.60;;;;;;5030933;28;20425;-75
2023/01/21 09:39:27;;;;;;;17.88;15.98;;;1.30;99.90;;;;;;5031655;28;20442;-75
2023/01/21 09:41:56;;;;;;;18.80;16.90;;;1.30;99.30;;;;;;5031795;28;20435;-73
2023/01/21 09:44:28;;;;;;;17.13;15.32;;;1.30;98.90;;;;;;5030251;28;20502;-74
2023/01/21 09:47:00;;;;;;;17.45;15.65;;;1.10;98.70;;;;;;5033441;28;20454;-74
2023/01/21 09:49:32;;;;;;;17.60;15.70;;;1.10;98.80;;;;;;5031618;28;20434;-73
2023/01/21 09:52:08;;;;;;;17.13;15.33;;;1.20;98.70;;;;;;5037084;28;20482;-74
2023/01/21 09:54:37;;;;;;;20.13;18.02;;;1.20;98.60;;;;;;5040584;28;20453;-74
2023/01/21 09:57:20;;;;;;;17.90;15.00;;;1.30;99.00;;;;;;5025722;28;20446;-73
2023/01/21 09:59:59;;;;;;;15.90;14.30;;;1.30;98.40;;;;;;5022843;28;20439;-73
2023/01/21 10:02:30;;;;;;;15.82;14.27;;;1.40;98.60;;;;;;5021261;28;20435;-73
2023/01/21 10:05:11;;;;;;;15.70;14.10;;;1.60;98.40;;;;;;5020569;28;20426;-72
2023/01/21 10:07:45;;;;;;;16.77;14.80;;;1.70;97.50;;;;;;5020509;28;20427;-72
2023/01/21 10:10:21;;;;;;;20.83;18.45;;;1.80;96.90;;;;;;5020933;28;20431;-74
2023/01/21 10:13:04;;;;;;;18.60;16.70;;;2.00;97.80;;;;;;5020706;28;20534;-72
2023/01/21 10:15:42;;;;;;;18.95;16.95;;;2.10;97.00;;;;;;5018417;28;20557;-74
2023/01/21 10:18:12;;;;;;;17.43;15.73;;;2.20;96.10;;;;;;5023921;28;20470;-75
2023/01/21 10:20:45;;;;;;;16.13;14.43;;;2.20;95.80;;;;;;5028395;28;20421;-75
2023/01/21 10:23:20;;;;;;;17.17;15.48;;;2.30;95.80;;;;;;5033477;28;20426;-74
2023/01/21 10:25:48;;;;;;;16.02;14.50;;;2.30;95.20;;;;;;5029663;28;20411;-76
2023/01/21 10:28:22;;;;;;;19.05;17.15;;;2.30;95.30;;;;;;5028624;28;20491;-75
2023/01/21 10:30:51;;;;;;;19.52;17.63;;;2.30;95.20;;;;;;5029878;28;20496;-74
2023/01/21 10:33:21;;;;;;;18.10;16.40;;;2.30;95.40;;;;;;5033923;28;20853;-75
2023/01/21 10:36:15;;;;;;;19.40;17.50;;;2.20;95.10;;;;;;5037767;28;20446;-74
2023/01/21 10:38:50;;;;;;;20.38;18.17;;;2.20;94.90;;;;;;5034771;28;20897;-75
2023/01/21 10:41:49;;;;;;;20.37;18.37;;;2.20;95.60;;;;;;5026476;28;20422;-75
2023/01/21 10:44:24;;;;;;;20.50;18.60;;;2.10;96.10;;;;;;5028407;28;20423;-76
2023/01/21 10:46:59;;;;;;;20.02;17.90;;;2.10;95.70;;;;;;5027354;28;20450;-76
2023/01/21 10:49:45;;;;;;;19.50;17.58;;;2.10;95.50;;;;;;5025273;28;20877;-77
2023/01/21 10:52:19;;;;;;;20.35;18.25;;;2.00;95.60;;;;;;5026208;28;20560;-77
2023/01/21 10:54:55;;;;;;;20.13;18.13;;;1.90;96.00;;;;;;5028986;28;20446;-77
2023/01/21 10:57:36;;;;;;;19.37;17.47;;;1.90;96.20;;;;;;5025348;28;20454;-77
2023/01/21 11:00:04;;;;;;;17.40;15.70;;;1.90;96.40;;;;;;5026465;28;20449;-74
2023/01/21 11:02:33;;;;;;;17.60;16.00;;;1.90;96.00;;;;;;5027055;28;20478;-73
2023/01/21 11:05:02;;;;;;;17.05;15.20;;;1.90;95.80;;;;;;5026420;28;20431;-76
2023/01/21 11:07:34;;;;;;;18.15;16.25;;;1.80;95.70;;;;;;5029407;28;20427;-77
2023/01/21 11:10:04;;;;;;;17.13;15.43;;;1.80;96.10;;;;;;5027521;28;20429;-76
2023/01/21 11:12:31;;;;;;;15.93;14.43;;;1.80;96.30;;;;;;5029450;28;20434;-75
2023/01/21 11:15:02;;;;;;;15.90;14.20;;;1.70;95.90;;;;;;5029195;28;20557;-76
2023/01/21 11:17:31;;;;;;;16.48;14.77;;;1.70;96.30;;;;;;5030145;28;20414;-76
2023/01/21 11:20:00;;;;;;;17.00;14.60;;;1.70;96.40;;;;;;5034520;28;20451;-76
2023/01/21 11:22:30;;;;;;;14.75;13.25;;;1.70;96.50;;;;;;5038995;28;20471;-76
2023/01/21 11:24:58;;;;;;;14.80;13.30;;;1.80;96.20;;;;;;5043588;28;20761;-75
2023/01/21 11:27:35;;;;;;;13.70;12.40;;;1.80;96.10;;;;;;5029634;28;20431;-76
2023/01/21 11:30:02;;;;;;;13.50;12.20;;;1.80;95.80;;;;;;5039350;28;20438;-76
2023/01/21 11:32:30;;;;;;;14.95;13.35;;;1.90;95.80;;;;;;5038456;28;20438;-75
2023/01/21 11:35:03;;;;;;;13.18;11.88;;;1.90;95.40;;;;;;5040040;28;20422;-76
2023/01/21 11:37:31;;;;;;;13.20;11.90;;;1.90;95.10;;;;;;5033939;28;20453;-75
2023/01/21 11:40:00;;;;;;;13.23;11.82;;;1.90;95.00;;;;;;5043006;28;21039;-75
2023/01/21 11:42:27;;;;;;;14.20;12.80;;;1.90;95.10;;;;;;5038329;28;20934;-75
2023/01/21 11:45:00;;;;;;;12.90;11.70;;;1.90;95.00;;;;;;5041941;28;20498;-75
2023/01/21 11:47:30;;;;;;;13.50;12.20;;;1.80;95.40;;;;;;5045209;28;20430;-75
2023/01/21 11:50:02;;;;;;;13.82;12.43;;;1.80;95.40;;;;;;5043178;28;20503;-76
2023/01/21 11:52:29;;;;;;;14.55;12.70;;;1.80;95.50;;;;;;5030199;28;20549;-74
2023/01/21 11:54:56;;;;;;;13.30;12.00;;;1.80;95.60;;;;;;5022063;28;20447;-75
2023/01/21 11:57:27;;;;;;;15.23;13.73;;;1.80;96.00;;;;;;5022264;28;20438;-75
2023/01/21 12:00:07;;;;;;;14.30;12.93;;;1.90;96.10;;;;;;5027763;28;20467;-74
2023/01/21 12:02:39;;;;;;;13.40;12.20;;;1.90;95.50;;;;;;5023533;28;20434;-74
2023/01/21 12:05:12;;;;;;;14.63;13.05;;;1.90;95.20;;;;;;5029516;28;20788;-74
2023/01/21 12:07:41;;;;;;;13.05;11.82;;;2.00;95.20;;;;;;5033944;28;20456;-74
2023/01/21 12:10:22;;;;;;;14.00;12.32;;;2.00;95.40;;;;;;5031923;28;21170;-75
2023/01/21 12:12:59;;;;;;;14.18;12.77;;;2.00;95.40;;;;;;5025725;28;20435;-75
2023/01/21 12:15:39;;;;;;;14.07;12.68;;;2.10;95.40;;;;;;5022573;28;20423;-75
2023/01/21 12:18:17;;;;;;;12.55;11.25;;;2.20;95.00;;;;;;5028592;28;20443;-75
2023/01/21 12:20:55;;;;;;;12.20;10.90;;;2.30;94.20;;;;;;5032347;28;20441;-73
2023/01/21 12:23:40;;;;;;;11.37;10.27;;;2.40;93.60;;;;;;5023702;28;20465;-75
2023/01/21 12:26:28;;;;;;;11.57;10.45;;;2.40;93.50;;;;;;5025099;28;20514;-75
2023/01/21 12:29:08;;;;;;;11.52;9.80;;;2.40;93.40;;;;;;5023821;28;20446;-75
2023/01/21 12:31:42;;;;;;;11.77;9.60;;;2.40;93.00;;;;;;5025608;28;20439;-74
2023/01/21 12:34:19;;;;;;;9.75;8.75;;;2.50;92.80;;;;;;5025799;28;20488;-75
2023/01/21 12:36:49;;;;;;;9.27;8.00;;;2.50;92.50;;;;;;5027189;28;20549;-75
2023/01/21 12:39:23;;;;;;;9.50;8.60;;;2.50;92.00;;;;;;5027678;28;20878;-75
2023/01/21 12:42:00;;;;;;;9.73;8.80;;;2.60;91.70;;;;;;5028097;28;20442;-75
2023/01/21 12:44:32;;;;;;;9.90;8.88;;;2.60;91.70;;;;;;5015760;28;20407;-74
2023/01/21 12:47:06;;;;;;;8.73;7.82;;;2.50;91.90;;;;;;5028676;28;20437;-75